sensor_id;sensor_type;location;lat;lon;timestamp;temperature;humidity
52471;DHT22;38382;53.160;7.026;2023-03-03T00:01:37;2.10;99.90
52471;DHT22;38382;53.160;7.026;2023-03-03T00:04:03;2.30;99.90
52471;DHT22;38382;53.160;7.026;2023-03-03T00:06:28;2.40;99.90
52471;DHT22;38382;53.160;7.026;2023-03-03T00:08:55;2.10;99.90
52471;DHT22;38382;53.160;7.026;2023-03-03T00:11:21;3.00;99.90
52471;DHT22;38382;53.160;7.026;2023-03-03T00:13:49;2.00;99.90
52471;DHT22;38382;53.160;7.026;2023-03-03T00:16:25;2.60;99.90
52471;DHT22;38382;53.160;7.026;2023-03-03T00:18:53;2.00;99.90
52471;DHT22;38382;53.160;7.026;2023-03-03T00:21:31;2.00;99.90
52471;DHT22;38382;53.160;7.026;2023-03-03T00:27:16;2.00;99.90
52471;DHT22;38382;53.160;7.026;2023-03-03T00:29:52;2.10;99.90
52471;DHT22;38382;53.160;7.026;2023-03-03T00:32:27;2.10;99.90
52471;DHT22;38382;53.160;7.026;2023-03-03T00:35:01;2.10;99.90
52471;DHT22;38382;53.160;7.026;2023-03-03T00:37:33;2.10;99.90
52471;DHT22;38382;53.160;7.026;2023-03-03T00:40:12;2.10;99.90
52471;DHT22;38382;53.160;7.026;2023-03-03T00:42:47;2.10;99.90
52471;DHT22;38382;53.160;7.026;2023-03-03T00:47:49;2.10;99.90
52471;DHT22;38382;53.160;7.026;2023-03-03T00:50:26;2.10;99.90
52471;DHT22;38382;53.160;7.026;2023-03-03T00:53:14;2.80;99.90
52471;DHT22;38382;53.160;7.026;2023-03-03T00:55:42;2.10;99.90
52471;DHT22;38382;53.160;7.026;2023-03-03T00:58:09;3.20;99.90
52471;DHT22;38382;53.160;7.026;2023-03-03T01:00:36;2.20;99.90
52471;DHT22;38382;53.160;7.026;2023-03-03T01:03:04;2.10;99.90
52471;DHT22;38382;53.160;7.026;2023-03-03T01:05:31;2.20;99.90
52471;DHT22;38382;53.160;7.026;2023-03-03T01:07:57;2.10;99.90
52471;DHT22;38382;53.160;7.026;2023-03-03T01:10:23;2.10;99.90
52471;DHT22;38382;53.160;7.026;2023-03-03T01:12:49;2.10;99.90
52471;DHT22;38382;53.160;7.026;2023-03-03T01:15:15;2.10;99.90
52471;DHT22;38382;53.160;7.026;2023-03-03T01:17:41;3.20;99.90
52471;DHT22;38382;53.160;7.026;2023-03-03T01:20:09;2.10;99.90
52471;DHT22;38382;53.160;7.026;2023-03-03T01:22:35;2.10;99.90
52471;DHT22;38382;53.160;7.026;2023-03-03T01:25:01;2.00;99.90
52471;DHT22;38382;53.160;7.026;2023-03-03T01:27:29;2.00;99.90
52471;DHT22;38382;53.160;7.026;2023-03-03T01:29:55;3.60;99.90
52471;DHT22;38382;53.160;7.026;2023-03-03T01:32:22;2.00;99.90
52471;DHT22;38382;53.160;7.026;2023-03-03T01:34:48;2.00;99.90
52471;DHT22;38382;53.160;7.026;2023-03-03T01:37:13;3.20;99.90
52471;DHT22;38382;53.160;7.026;2023-03-03T01:39:39;3.00;99.90
52471;DHT22;38382;53.160;7.026;2023-03-03T01:42:05;2.50;99.90
52471;DHT22;38382;53.160;7.026;2023-03-03T01:44:31;2.00;99.90
52471;DHT22;38382;53.160;7.026;2023-03-03T01:47:14;2.00;99.90
52471;DHT22;38382;53.160;7.026;2023-03-03T01:49:50;1.90;99.90
52471;DHT22;38382;53.160;7.026;2023-03-03T01:52:33;1.90;99.90
52471;DHT22;38382;53.160;7.026;2023-03-03T01:55:24;1.90;99.90
52471;DHT22;38382;53.160;7.026;2023-03-03T01:58:09;1.90;99.90
52471;DHT22;38382;53.160;7.026;2023-03-03T02:00:38;1.90;99.90
52471;DHT22;38382;53.160;7.026;2023-03-03T02:03:05;2.10;99.90
52471;DHT22;38382;53.160;7.026;2023-03-03T02:05:31;2.20;99.90
52471;DHT22;38382;53.160;7.026;2023-03-03T02:07:58;1.80;99.90
52471;DHT22;38382;53.160;7.026;2023-03-03T02:10:24;1.80;99.90
52471;DHT22;38382;53.160;7.026;2023-03-03T02:12:53;2.00;99.90
52471;DHT22;38382;53.160;7.026;2023-03-03T02:15:31;2.10;99.90
52471;DHT22;38382;53.160;7.026;2023-03-03T02:18:12;3.00;99.90
52471;DHT22;38382;53.160;7.026;2023-03-03T02:23:29;1.70;99.90
52471;DHT22;38382;53.160;7.026;2023-03-03T02:26:06;1.70;99.90
52471;DHT22;38382;53.160;7.026;2023-03-03T02:28:34;1.70;99.90
52471;DHT22;38382;53.160;7.026;2023-03-03T02:31:01;1.70;99.90
52471;DHT22;38382;53.160;7.026;2023-03-03T02:33:27;3.20;99.90
52471;DHT22;38382;53.160;7.026;2023-03-03T02:35:53;1.70;99.90
52471;DHT22;38382;53.160;7.026;2023-03-03T02:41:16;1.80;99.90
52471;DHT22;38382;53.160;7.026;2023-03-03T02:46:17;1.70;99.90
52471;DHT22;38382;53.160;7.026;2023-03-03T02:48:43;2.20;99.90
52471;DHT22;38382;53.160;7.026;2023-03-03T02:51:09;1.60;99.90
52471;DHT22;38382;53.160;7.026;2023-03-03T02:53:35;1.90;99.90
52471;DHT22;38382;53.160;7.026;2023-03-03T02:56:01;2.70;99.90
52471;DHT22;38382;53.160;7.026;2023-03-03T02:58:29;2.00;99.90
52471;DHT22;38382;53.160;7.026;2023-03-03T03:00:55;1.60;99.90
52471;DHT22;38382;53.160;7.026;2023-03-03T03:03:21;1.60;99.90
52471;DHT22;38382;53.160;7.026;2023-03-03T03:05:47;1.60;99.90
52471;DHT22;38382;53.160;7.026;2023-03-03T03:08:13;1.50;99.90
52471;DHT22;38382;53.160;7.026;2023-03-03T03:10:39;1.50;99.90
52471;DHT22;38382;53.160;7.026;2023-03-03T03:13:05;1.70;99.90
52471;DHT22;38382;53.160;7.026;2023-03-03T03:15:31;3.10;99.90
52471;DHT22;38382;53.160;7.026;2023-03-03T03:17:56;2.70;99.90
52471;DHT22;38382;53.160;7.026;2023-03-03T03:20:22;3.10;99.90
52471;DHT22;38382;53.160;7.026;2023-03-03T03:22:48;1.60;99.90
52471;DHT22;38382;53.160;7.026;2023-03-03T03:25:13;2.60;99.90
52471;DHT22;38382;53.160;7.026;2023-03-03T03:27:39;1.60;99.90
52471;DHT22;38382;53.160;7.026;2023-03-03T03:30:05;3.20;99.90
52471;DHT22;38382;53.160;7.026;2023-03-03T03:32:31;1.60;99.90
52471;DHT22;38382;53.160;7.026;2023-03-03T03:34:57;1.80;99.90
52471;DHT22;38382;53.160;7.026;2023-03-03T03:37:23;1.60;99.90
52471;DHT22;38382;53.160;7.026;2023-03-03T03:39:49;2.00;99.90
52471;DHT22;38382;53.160;7.026;2023-03-03T03:42:15;1.70;99.90
52471;DHT22;38382;53.160;7.026;2023-03-03T03:44:40;1.60;99.90
52471;DHT22;38382;53.160;7.026;2023-03-03T03:47:06;1.60;99.90
52471;DHT22;38382;53.160;7.026;2023-03-03T03:49:32;1.60;99.90
52471;DHT22;38382;53.160;7.026;2023-03-03T03:51:58;1.50;99.90
52471;DHT22;38382;53.160;7.026;2023-03-03T03:54:23;2.10;99.90
52471;DHT22;38382;53.160;7.026;2023-03-03T03:56:50;1.40;99.90
52471;DHT22;38382;53.160;7.026;2023-03-03T03:59:15;1.40;99.90
52471;DHT22;38382;53.160;7.026;2023-03-03T04:01:41;2.80;99.90
52471;DHT22;38382;53.160;7.026;2023-03-03T04:04:07;1.70;99.90
52471;DHT22;38382;53.160;7.026;2023-03-03T04:06:33;2.50;99.90
52471;DHT22;38382;53.160;7.026;2023-03-03T04:08:59;1.40;99.90
52471;DHT22;38382;53.160;7.026;2023-03-03T04:11:24;1.40;99.90
52471;DHT22;38382;53.160;7.026;2023-03-03T04:13:50;1.80;99.90
52471;DHT22;38382;53.160;7.026;2023-03-03T04:16:16;2.00;99.90
52471;DHT22;38382;53.160;7.026;2023-03-03T04:18:42;2.10;99.90
52471;DHT22;38382;53.160;7.026;2023-03-03T04:21:12;2.80;99.90
52471;DHT22;38382;53.160;7.026;2023-03-03T04:23:38;1.60;99.90
52471;DHT22;38382;53.160;7.026;2023-03-03T04:26:04;1.30;99.90
52471;DHT22;38382;53.160;7.026;2023-03-03T04:28:30;2.00;99.90
52471;DHT22;38382;53.160;7.026;2023-03-03T04:30:56;1.30;99.90
52471;DHT22;38382;53.160;7.026;2023-03-03T04:33:22;2.70;99.90
52471;DHT22;38382;53.160;7.026;2023-03-03T04:35:47;2.20;99.90
52471;DHT22;38382;53.160;7.026;2023-03-03T04:38:14;1.60;99.90
52471;DHT22;38382;53.160;7.026;2023-03-03T04:40:40;1.40;99.90
52471;DHT22;38382;53.160;7.026;2023-03-03T04:43:06;1.10;99.90
52471;DHT22;38382;53.160;7.026;2023-03-03T04:45:32;2.10;99.90
52471;DHT22;38382;53.160;7.026;2023-03-03T04:47:58;2.40;99.90
52471;DHT22;38382;53.160;7.026;2023-03-03T04:50:24;1.90;99.90
52471;DHT22;38382;53.160;7.026;2023-03-03T04:52:49;1.60;99.90
52471;DHT22;38382;53.160;7.026;2023-03-03T04:55:15;1.40;99.90
52471;DHT22;38382;53.160;7.026;2023-03-03T04:57:41;1.00;99.90
52471;DHT22;38382;53.160;7.026;2023-03-03T05:00:09;1.60;99.90
52471;DHT22;38382;53.160;7.026;2023-03-03T05:02:35;0.90;99.90
52471;DHT22;38382;53.160;7.026;2023-03-03T05:05:00;1.20;99.90
52471;DHT22;38382;53.160;7.026;2023-03-03T05:07:26;0.80;99.90
52471;DHT22;38382;53.160;7.026;2023-03-03T05:09:52;0.70;99.90
52471;DHT22;38382;53.160;7.026;2023-03-03T05:12:17;0.60;99.90
52471;DHT22;38382;53.160;7.026;2023-03-03T05:14:43;1.10;99.90
52471;DHT22;38382;53.160;7.026;2023-03-03T05:17:09;0.60;99.90
52471;DHT22;38382;53.160;7.026;2023-03-03T05:19:34;0.60;99.90
52471;DHT22;38382;53.160;7.026;2023-03-03T05:22:01;1.70;99.90
52471;DHT22;38382;53.160;7.026;2023-03-03T05:24:26;1.10;99.90
52471;DHT22;38382;53.160;7.026;2023-03-03T05:26:52;0.60;99.90
52471;DHT22;38382;53.160;7.026;2023-03-03T05:29:18;1.10;99.90
52471;DHT22;38382;53.160;7.026;2023-03-03T05:31:44;1.60;99.90
52471;DHT22;38382;53.160;7.026;2023-03-03T05:34:09;1.50;99.90
52471;DHT22;38382;53.160;7.026;2023-03-03T05:36:35;0.30;99.90
52471;DHT22;38382;53.160;7.026;2023-03-03T05:39:01;0.30;99.90
52471;DHT22;38382;53.160;7.026;2023-03-03T05:41:27;1.60;99.90
52471;DHT22;38382;53.160;7.026;2023-03-03T05:43:52;0.30;99.90
52471;DHT22;38382;53.160;7.026;2023-03-03T05:46:19;0.20;99.90
52471;DHT22;38382;53.160;7.026;2023-03-03T05:48:44;0.50;99.90
52471;DHT22;38382;53.160;7.026;2023-03-03T05:51:10;0.10;99.90
52471;DHT22;38382;53.160;7.026;2023-03-03T05:53:36;0.10;99.90
52471;DHT22;38382;53.160;7.026;2023-03-03T05:56:02;0.20;99.90
52471;DHT22;38382;53.160;7.026;2023-03-03T05:58:27;0.00;99.90
52471;DHT22;38382;53.160;7.026;2023-03-03T06:00:53;-0.10;99.90
52471;DHT22;38382;53.160;7.026;2023-03-03T06:03:19;0.00;99.90
52471;DHT22;38382;53.160;7.026;2023-03-03T06:05:46;0.50;99.90
52471;DHT22;38382;53.160;7.026;2023-03-03T06:08:12;-0.10;99.90
52471;DHT22;38382;53.160;7.026;2023-03-03T06:10:37;-0.10;99.90
52471;DHT22;38382;53.160;7.026;2023-03-03T06:13:03;1.10;99.90
52471;DHT22;38382;53.160;7.026;2023-03-03T06:15:29;-0.10;99.90
52471;DHT22;38382;53.160;7.026;2023-03-03T06:17:55;0.90;99.90
52471;DHT22;38382;53.160;7.026;2023-03-03T06:20:20;0.20;99.90
52471;DHT22;38382;53.160;7.026;2023-03-03T06:22:46;0.50;99.90
52471;DHT22;38382;53.160;7.026;2023-03-03T06:25:12;-0.20;99.90
52471;DHT22;38382;53.160;7.026;2023-03-03T06:27:37;-0.20;99.90
52471;DHT22;38382;53.160;7.026;2023-03-03T06:30:03;-0.20;99.90
52471;DHT22;38382;53.160;7.026;2023-03-03T06:32:29;-0.20;99.90
52471;DHT22;38382;53.160;7.026;2023-03-03T06:34:57;-0.20;99.90
52471;DHT22;38382;53.160;7.026;2023-03-03T06:37:23;0.70;99.90
52471;DHT22;38382;53.160;7.026;2023-03-03T06:39:48;-0.20;99.90
52471;DHT22;38382;53.160;7.026;2023-03-03T06:42:16;0.70;99.90
52471;DHT22;38382;53.160;7.026;2023-03-03T06:44:43;-0.30;99.90
52471;DHT22;38382;53.160;7.026;2023-03-03T06:47:09;-0.20;99.90
52471;DHT22;38382;53.160;7.026;2023-03-03T06:49:34;-0.30;99.90
52471;DHT22;38382;53.160;7.026;2023-03-03T06:52:09;-0.30;99.90
52471;DHT22;38382;53.160;7.026;2023-03-03T06:54:35;0.10;99.90
52471;DHT22;38382;53.160;7.026;2023-03-03T06:57:19;-0.30;99.90
52471;DHT22;38382;53.160;7.026;2023-03-03T06:59:48;-0.20;99.90
52471;DHT22;38382;53.160;7.026;2023-03-03T07:02:17;0.50;99.90
52471;DHT22;38382;53.160;7.026;2023-03-03T07:04:43;0.40;99.90
52471;DHT22;38382;53.160;7.026;2023-03-03T07:09:38;0.10;99.90
52471;DHT22;38382;53.160;7.026;2023-03-03T07:12:14;0.80;99.90
52471;DHT22;38382;53.160;7.026;2023-03-03T07:14:45;0.00;99.90
52471;DHT22;38382;53.160;7.026;2023-03-03T07:17:17;0.40;99.90
52471;DHT22;38382;53.160;7.026;2023-03-03T07:19:44;-0.10;99.90
52471;DHT22;38382;53.160;7.026;2023-03-03T07:22:14;-0.10;99.90
52471;DHT22;38382;53.160;7.026;2023-03-03T07:24:43;0.40;99.90
52471;DHT22;38382;53.160;7.026;2023-03-03T07:29:50;-0.10;99.90
52471;DHT22;38382;53.160;7.026;2023-03-03T07:32:27;1.30;99.90
52471;DHT22;38382;53.160;7.026;2023-03-03T07:34:55;1.50;99.90
52471;DHT22;38382;53.160;7.026;2023-03-03T07:37:34;0.10;99.90
52471;DHT22;38382;53.160;7.026;2023-03-03T07:42:49;0.10;99.90
52471;DHT22;38382;53.160;7.026;2023-03-03T07:45:42;0.20;99.90
52471;DHT22;38382;53.160;7.026;2023-03-03T07:48:29;1.60;99.90
52471;DHT22;38382;53.160;7.026;2023-03-03T07:50:57;0.40;99.90
52471;DHT22;38382;53.160;7.026;2023-03-03T07:53:25;1.90;99.90
52471;DHT22;38382;53.160;7.026;2023-03-03T07:55:52;2.00;99.90
52471;DHT22;38382;53.160;7.026;2023-03-03T07:58:24;0.70;99.90
52471;DHT22;38382;53.160;7.026;2023-03-03T08:01:43;2.40;99.90
52471;DHT22;38382;53.160;7.026;2023-03-03T08:04:15;0.90;99.90
52471;DHT22;38382;53.160;7.026;2023-03-03T08:06:45;0.90;99.90
52471;DHT22;38382;53.160;7.026;2023-03-03T08:09:28;0.90;99.90
52471;DHT22;38382;53.160;7.026;2023-03-03T08:12:18;0.90;99.90
52471;DHT22;38382;53.160;7.026;2023-03-03T08:14:46;1.00;99.90
52471;DHT22;38382;53.160;7.026;2023-03-03T08:17:22;1.90;99.90
52471;DHT22;38382;53.160;7.026;2023-03-03T08:19:50;1.10;99.90
52471;DHT22;38382;53.160;7.026;2023-03-03T08:22:30;1.10;99.90
52471;DHT22;38382;53.160;7.026;2023-03-03T08:24:55;2.80;99.90
52471;DHT22;38382;53.160;7.026;2023-03-03T08:27:21;2.50;99.90
52471;DHT22;38382;53.160;7.026;2023-03-03T08:29:47;1.80;99.90
52471;DHT22;38382;53.160;7.026;2023-03-03T08:32:14;2.40;99.90
52471;DHT22;38382;53.160;7.026;2023-03-03T08:34:40;1.30;99.90
52471;DHT22;38382;53.160;7.026;2023-03-03T08:37:06;1.50;99.90
52471;DHT22;38382;53.160;7.026;2023-03-03T08:39:32;1.40;99.90
52471;DHT22;38382;53.160;7.026;2023-03-03T08:41:58;1.50;99.90
52471;DHT22;38382;53.160;7.026;2023-03-03T08:44:24;1.60;99.90
52471;DHT22;38382;53.160;7.026;2023-03-03T08:46:49;1.60;99.90
52471;DHT22;38382;53.160;7.026;2023-03-03T08:49:15;1.70;99.90
52471;DHT22;38382;53.160;7.026;2023-03-03T08:51:41;2.00;99.90
52471;DHT22;38382;53.160;7.026;2023-03-03T08:54:07;2.90;99.90
52471;DHT22;38382;53.160;7.026;2023-03-03T08:56:32;2.00;99.90
52471;DHT22;38382;53.160;7.026;2023-03-03T08:58:58;3.40;99.90
52471;DHT22;38382;53.160;7.026;2023-03-03T09:01:24;3.60;99.90
52471;DHT22;38382;53.160;7.026;2023-03-03T09:03:50;2.30;99.90
52471;DHT22;38382;53.160;7.026;2023-03-03T09:06:15;2.40;99.90
52471;DHT22;38382;53.160;7.026;2023-03-03T09:08:41;3.10;99.90
52471;DHT22;38382;53.160;7.026;2023-03-03T09:11:13;4.40;99.90
52471;DHT22;38382;53.160;7.026;2023-03-03T09:13:39;3.20;99.90
52471;DHT22;38382;53.160;7.026;2023-03-03T09:16:15;3.20;99.90
52471;DHT22;38382;53.160;7.026;2023-03-03T09:18:41;3.70;99.90
52471;DHT22;38382;53.160;7.026;2023-03-03T09:21:25;4.30;99.90
52471;DHT22;38382;53.160;7.026;2023-03-03T09:23:57;3.40;99.90
52471;DHT22;38382;53.160;7.026;2023-03-03T09:26:41;3.50;99.90
52471;DHT22;38382;53.160;7.026;2023-03-03T09:31:47;3.40;99.90
52471;DHT22;38382;53.160;7.026;2023-03-03T09:36:54;3.40;99.90
52471;DHT22;38382;53.160;7.026;2023-03-03T09:39:22;3.50;99.90
52471;DHT22;38382;53.160;7.026;2023-03-03T09:42:19;3.90;99.90
52471;DHT22;38382;53.160;7.026;2023-03-03T09:45:06;4.10;99.90
52471;DHT22;38382;53.160;7.026;2023-03-03T09:52:51;3.80;99.90
52471;DHT22;38382;53.160;7.026;2023-03-03T10:00:54;3.90;99.90
52471;DHT22;38382;53.160;7.026;2023-03-03T10:07:09;4.20;99.90
52471;DHT22;38382;53.160;7.026;2023-03-03T10:12:42;4.40;99.90
52471;DHT22;38382;53.160;7.026;2023-03-03T10:18:33;4.60;99.90
52471;DHT22;38382;53.160;7.026;2023-03-03T10:20:58;4.80;99.90
52471;DHT22;38382;53.160;7.026;2023-03-03T10:34:49;5.40;99.90
52471;DHT22;38382;53.160;7.026;2023-03-03T10:40:24;5.90;99.90
52471;DHT22;38382;53.160;7.026;2023-03-03T10:48:24;6.60;99.90
52471;DHT22;38382;53.160;7.026;2023-03-03T10:53:30;7.70;99.90
52471;DHT22;38382;53.160;7.026;2023-03-03T11:01:38;8.40;99.90
52471;DHT22;38382;53.160;7.026;2023-03-03T11:12:23;8.60;99.90
52471;DHT22;38382;53.160;7.026;2023-03-03T11:16:01;8.50;99.90
52471;DHT22;38382;53.160;7.026;2023-03-03T11:29:32;10.50;99.90
52471;DHT22;38382;53.160;7.026;2023-03-03T11:32:31;10.40;99.90
52471;DHT22;38382;53.160;7.026;2023-03-03T11:35:26;9.90;99.90
52471;DHT22;38382;53.160;7.026;2023-03-03T11:41:16;9.60;99.90
52471;DHT22;38382;53.160;7.026;2023-03-03T11:43:26;9.30;99.90
52471;DHT22;38382;53.160;7.026;2023-03-03T11:45:59;9.00;99.90
52471;DHT22;38382;53.160;7.026;2023-03-03T11:48:51;8.90;99.90
52471;DHT22;38382;53.160;7.026;2023-03-03T11:51:49;8.70;99.90
52471;DHT22;38382;53.160;7.026;2023-03-03T11:54:43;8.50;99.90
52471;DHT22;38382;53.160;7.026;2023-03-03T12:02:55;8.10;99.90
52471;DHT22;38382;53.160;7.026;2023-03-03T12:05:54;8.00;99.90
52471;DHT22;38382;53.160;7.026;2023-03-03T12:09:12;8.00;99.90
52471;DHT22;38382;53.160;7.026;2023-03-03T12:18:15;7.90;99.90
52471;DHT22;38382;53.160;7.026;2023-03-03T12:24:30;8.00;99.90
52471;DHT22;38382;53.160;7.026;2023-03-03T12:41:44;8.50;99.90
52471;DHT22;38382;53.160;7.026;2023-03-03T12:46:58;8.40;99.90
52471;DHT22;38382;53.160;7.026;2023-03-03T12:49:42;8.40;99.90
52471;DHT22;38382;53.160;7.026;2023-03-03T12:52:32;8.40;99.90
52471;DHT22;38382;53.160;7.026;2023-03-03T12:57:52;9.60;99.90
52471;DHT22;38382;53.160;7.026;2023-03-03T13:00:29;9.70;99.90
52471;DHT22;38382;53.160;7.026;2023-03-03T13:08:45;9.20;99.90
52471;DHT22;38382;53.160;7.026;2023-03-03T13:14:22;9.20;99.90
52471;DHT22;38382;53.160;7.026;2023-03-03T13:17:14;9.30;99.90
52471;DHT22;38382;53.160;7.026;2023-03-03T13:22:43;9.50;99.90
52471;DHT22;38382;53.160;7.026;2023-03-03T13:28:20;9.40;99.90
52471;DHT22;38382;53.160;7.026;2023-03-03T13:30:49;9.20;99.90
52471;DHT22;38382;53.160;7.026;2023-03-03T13:33:33;9.20;99.90
52471;DHT22;38382;53.160;7.026;2023-03-03T13:36:09;9.30;99.90
52471;DHT22;38382;53.160;7.026;2023-03-03T13:38:40;9.20;99.90
52471;DHT22;38382;53.160;7.026;2023-03-03T13:41:29;9.20;99.90
52471;DHT22;38382;53.160;7.026;2023-03-03T13:44:14;9.30;99.90
52471;DHT22;38382;53.160;7.026;2023-03-03T13:46:47;9.70;99.90
52471;DHT22;38382;53.160;7.026;2023-03-03T13:49:39;9.80;99.90
52471;DHT22;38382;53.160;7.026;2023-03-03T13:52:09;9.70;99.90
52471;DHT22;38382;53.160;7.026;2023-03-03T14:05:36;9.10;99.90
52471;DHT22;38382;53.160;7.026;2023-03-03T14:11:14;9.30;99.90
52471;DHT22;38382;53.160;7.026;2023-03-03T14:14:37;9.40;99.90
52471;DHT22;38382;53.160;7.026;2023-03-03T14:17:31;9.50;99.90
52471;DHT22;38382;53.160;7.026;2023-03-03T14:19:56;9.60;99.90
52471;DHT22;38382;53.160;7.026;2023-03-03T14:22:39;9.50;99.90
52471;DHT22;38382;53.160;7.026;2023-03-03T14:25:08;9.40;99.90
52471;DHT22;38382;53.160;7.026;2023-03-03T14:27:38;10.50;99.90
52471;DHT22;38382;53.160;7.026;2023-03-03T14:30:24;8.90;99.90
52471;DHT22;38382;53.160;7.026;2023-03-03T14:38:12;8.50;99.90
52471;DHT22;38382;53.160;7.026;2023-03-03T14:40:39;8.40;99.90
52471;DHT22;38382;53.160;7.026;2023-03-03T14:43:32;8.10;99.90
52471;DHT22;38382;53.160;7.026;2023-03-03T14:49:10;8.10;99.90
52471;DHT22;38382;53.160;7.026;2023-03-03T14:51:46;8.00;99.90
52471;DHT22;38382;53.160;7.026;2023-03-03T14:54:26;8.00;99.90
52471;DHT22;38382;53.160;7.026;2023-03-03T14:59:32;7.90;99.90
52471;DHT22;38382;53.160;7.026;2023-03-03T15:04:46;7.70;99.90
52471;DHT22;38382;53.160;7.026;2023-03-03T15:09:48;7.70;99.90
52471;DHT22;38382;53.160;7.026;2023-03-03T15:12:21;7.60;99.90
52471;DHT22;38382;53.160;7.026;2023-03-03T15:14:47;7.60;99.90
52471;DHT22;38382;53.160;7.026;2023-03-03T15:25:02;7.40;99.90
52471;DHT22;38382;53.160;7.026;2023-03-03T15:27:36;7.30;99.90
52471;DHT22;38382;53.160;7.026;2023-03-03T15:30:20;7.30;99.90
52471;DHT22;38382;53.160;7.026;2023-03-03T15:33:28;7.30;99.90
52471;DHT22;38382;53.160;7.026;2023-03-03T15:38:53;7.20;99.90
52471;DHT22;38382;53.160;7.026;2023-03-03T15:41:36;7.20;99.90
52471;DHT22;38382;53.160;7.026;2023-03-03T15:44:20;7.10;99.90
52471;DHT22;38382;53.160;7.026;2023-03-03T15:55:19;7.00;99.90
52471;DHT22;38382;53.160;7.026;2023-03-03T16:03:39;6.90;99.90
52471;DHT22;38382;53.160;7.026;2023-03-03T16:06:29;6.90;99.90
52471;DHT22;38382;53.160;7.026;2023-03-03T16:09:06;6.90;99.90
52471;DHT22;38382;53.160;7.026;2023-03-03T16:12:06;6.80;99.90
52471;DHT22;38382;53.160;7.026;2023-03-03T16:18:06;6.70;99.90
52471;DHT22;38382;53.160;7.026;2023-03-03T16:20:44;6.70;99.90
52471;DHT22;38382;53.160;7.026;2023-03-03T16:23:29;6.60;99.90
52471;DHT22;38382;53.160;7.026;2023-03-03T16:31:36;6.60;99.90
52471;DHT22;38382;53.160;7.026;2023-03-03T16:39:50;6.60;99.90
52471;DHT22;38382;53.160;7.026;2023-03-03T16:42:26;6.60;99.90
52471;DHT22;38382;53.160;7.026;2023-03-03T16:45:26;6.50;99.90
52471;DHT22;38382;53.160;7.026;2023-03-03T16:50:47;6.50;99.90
52471;DHT22;38382;53.160;7.026;2023-03-03T17:04:45;6.40;99.90
52471;DHT22;38382;53.160;7.026;2023-03-03T17:12:36;6.30;99.90
52471;DHT22;38382;53.160;7.026;2023-03-03T17:18:10;6.20;99.90
52471;DHT22;38382;53.160;7.026;2023-03-03T17:20:57;6.20;99.90
52471;DHT22;38382;53.160;7.026;2023-03-03T17:34:14;6.10;99.90
52471;DHT22;38382;53.160;7.026;2023-03-03T17:44:26;6.70;99.90
52471;DHT22;38382;53.160;7.026;2023-03-03T17:46:58;6.00;99.90
52471;DHT22;38382;53.160;7.026;2023-03-03T17:55:10;6.00;99.90
52471;DHT22;38382;53.160;7.026;2023-03-03T17:58:02;5.90;99.90
52471;DHT22;38382;53.160;7.026;2023-03-03T18:03:32;5.90;99.90
52471;DHT22;38382;53.160;7.026;2023-03-03T18:11:27;5.90;99.90
52471;DHT22;38382;53.160;7.026;2023-03-03T18:20:04;6.90;99.90
52471;DHT22;38382;53.160;7.026;2023-03-03T18:22:49;5.80;99.90
52471;DHT22;38382;53.160;7.026;2023-03-03T18:25:19;5.80;99.90
52471;DHT22;38382;53.160;7.026;2023-03-03T18:28:13;6.00;99.90
52471;DHT22;38382;53.160;7.026;2023-03-03T18:33:34;5.80;99.90
52471;DHT22;38382;53.160;7.026;2023-03-03T18:36:38;5.80;99.90
52471;DHT22;38382;53.160;7.026;2023-03-03T18:39:05;5.80;99.90
52471;DHT22;38382;53.160;7.026;2023-03-03T18:42:03;5.70;99.90
52471;DHT22;38382;53.160;7.026;2023-03-03T18:44:30;5.70;99.90
52471;DHT22;38382;53.160;7.026;2023-03-03T18:46:56;5.70;99.90
52471;DHT22;38382;53.160;7.026;2023-03-03T18:52:30;5.70;99.90
52471;DHT22;38382;53.160;7.026;2023-03-03T18:57:35;5.60;99.90
52471;DHT22;38382;53.160;7.026;2023-03-03T19:00:15;5.70;99.90
52471;DHT22;38382;53.160;7.026;2023-03-03T19:02:54;5.70;99.90
52471;DHT22;38382;53.160;7.026;2023-03-03T19:05:46;5.70;99.90
52471;DHT22;38382;53.160;7.026;2023-03-03T19:08:20;5.60;99.90
52471;DHT22;38382;53.160;7.026;2023-03-03T19:10:51;5.60;99.90
52471;DHT22;38382;53.160;7.026;2023-03-03T19:13:43;5.60;99.90
52471;DHT22;38382;53.160;7.026;2023-03-03T19:21:30;5.70;99.90
52471;DHT22;38382;53.160;7.026;2023-03-03T19:24:02;5.70;99.90
52471;DHT22;38382;53.160;7.026;2023-03-03T19:29:50;5.60;99.90
52471;DHT22;38382;53.160;7.026;2023-03-03T19:37:54;5.60;99.90
52471;DHT22;38382;53.160;7.026;2023-03-03T19:48:39;5.60;99.90
52471;DHT22;38382;53.160;7.026;2023-03-03T19:51:08;5.60;99.90
52471;DHT22;38382;53.160;7.026;2023-03-03T19:53:45;5.80;99.90
52471;DHT22;38382;53.160;7.026;2023-03-03T19:56:32;5.60;99.90
52471;DHT22;38382;53.160;7.026;2023-03-03T19:59:44;5.60;99.90
52471;DHT22;38382;53.160;7.026;2023-03-03T20:10:37;5.50;99.90
52471;DHT22;38382;53.160;7.026;2023-03-03T20:22:18;5.40;99.90
52471;DHT22;38382;53.160;7.026;2023-03-03T20:24:56;5.40;99.90
52471;DHT22;38382;53.160;7.026;2023-03-03T20:27:34;5.70;99.90
52471;DHT22;38382;53.160;7.026;2023-03-03T20:30:09;5.40;99.90
52471;DHT22;38382;53.160;7.026;2023-03-03T20:35:56;5.50;99.90
52471;DHT22;38382;53.160;7.026;2023-03-03T20:38:39;5.80;99.90
52471;DHT22;38382;53.160;7.026;2023-03-03T20:46:25;5.50;99.90
52471;DHT22;38382;53.160;7.026;2023-03-03T20:59:59;5.50;99.90
52471;DHT22;38382;53.160;7.026;2023-03-03T21:05:24;5.40;99.90
52471;DHT22;38382;53.160;7.026;2023-03-03T21:07:54;5.50;99.90
52471;DHT22;38382;53.160;7.026;2023-03-03T21:10:23;5.50;99.90
52471;DHT22;38382;53.160;7.026;2023-03-03T21:12:50;5.50;99.90
52471;DHT22;38382;53.160;7.026;2023-03-03T21:15:32;5.40;99.90
52471;DHT22;38382;53.160;7.026;2023-03-03T21:18:19;5.50;99.90
52471;DHT22;38382;53.160;7.026;2023-03-03T21:20:45;5.50;99.90
52471;DHT22;38382;53.160;7.026;2023-03-03T21:23:11;5.40;99.90
52471;DHT22;38382;53.160;7.026;2023-03-03T21:28:19;5.50;99.90
52471;DHT22;38382;53.160;7.026;2023-03-03T21:38:57;5.50;99.90
52471;DHT22;38382;53.160;7.026;2023-03-03T21:41:23;5.50;99.90
52471;DHT22;38382;53.160;7.026;2023-03-03T21:43:52;5.50;99.90
52471;DHT22;38382;53.160;7.026;2023-03-03T21:46:20;5.50;99.90
52471;DHT22;38382;53.160;7.026;2023-03-03T21:48:47;6.00;99.90
52471;DHT22;38382;53.160;7.026;2023-03-03T21:51:13;5.60;99.90
52471;DHT22;38382;53.160;7.026;2023-03-03T21:53:43;6.20;99.90
52471;DHT22;38382;53.160;7.026;2023-03-03T21:56:12;5.80;99.90
52471;DHT22;38382;53.160;7.026;2023-03-03T21:58:39;5.50;99.90
52471;DHT22;38382;53.160;7.026;2023-03-03T22:01:07;5.90;99.90
52471;DHT22;38382;53.160;7.026;2023-03-03T22:03:35;5.50;99.90
52471;DHT22;38382;53.160;7.026;2023-03-03T22:06:01;5.50;99.90
52471;DHT22;38382;53.160;7.026;2023-03-03T22:08:27;5.50;99.90
52471;DHT22;38382;53.160;7.026;2023-03-03T22:10:53;5.50;99.90
52471;DHT22;38382;53.160;7.026;2023-03-03T22:13:25;5.50;99.90
52471;DHT22;38382;53.160;7.026;2023-03-03T22:15:51;5.80;99.90
52471;DHT22;38382;53.160;7.026;2023-03-03T22:18:17;5.60;99.90